createdAt,value
2023-12-30T00:00:43.857Z,0.87
2023-12-30T00:03:12.375Z,4.40
2023-12-30T00:05:40.182Z,1.20
2023-12-30T00:08:09.558Z,1.60
2023-12-30T00:10:37.775Z,1.57
2023-12-30T00:13:06.003Z,2.50
2023-12-30T00:15:34.112Z,2.20
2023-12-30T00:18:02.258Z,1.00
2023-12-30T00:20:30.060Z,1.20
2023-12-30T00:22:57.914Z,3.60
2023-12-30T00:25:27.331Z,2.80
2023-12-30T00:27:56.918Z,1.60
2023-12-30T00:30:25.227Z,3.43
2023-12-30T00:32:53.127Z,2.83
2023-12-30T00:35:22.416Z,1.47
2023-12-30T00:37:50.588Z,4.53
2023-12-30T00:40:26.349Z,1.20
2023-12-30T00:42:57.036Z,3.93
2023-12-30T00:45:25.170Z,2.33
2023-12-30T00:47:53.535Z,3.27
2023-12-30T00:50:21.502Z,2.87
2023-12-30T00:52:49.917Z,4.77
2023-12-30T00:55:18.550Z,3.03
2023-12-30T00:57:46.415Z,3.40
2023-12-30T01:00:16.933Z,3.30
2023-12-30T01:02:44.638Z,3.60
2023-12-30T01:05:12.813Z,5.40
2023-12-30T01:07:40.736Z,3.23
2023-12-30T01:10:09.200Z,3.80
2023-12-30T01:12:36.928Z,4.20
2023-12-30T01:15:05.417Z,3.87
2023-12-30T01:17:34.909Z,3.03
2023-12-30T01:20:03.626Z,5.73
2023-12-30T01:22:31.628Z,8.80
2023-12-30T01:24:59.420Z,2.60
2023-12-30T01:27:27.195Z,7.70
2023-12-30T01:29:55.468Z,2.20
2023-12-30T01:32:23.203Z,2.43
2023-12-30T01:34:52.678Z,2.97
2023-12-30T01:37:21.012Z,2.10
2023-12-30T01:39:49.172Z,3.30
2023-12-30T01:42:17.771Z,2.80
2023-12-30T01:44:46.029Z,2.90
2023-12-30T01:47:14.236Z,3.27
2023-12-30T01:49:42.249Z,3.67
2023-12-30T01:52:12.051Z,7.57
2023-12-30T01:54:40.506Z,4.17
2023-12-30T01:57:08.394Z,3.13
2023-12-30T01:59:37.951Z,2.77
2023-12-30T02:02:06.020Z,15.87
2023-12-30T02:04:34.124Z,4.50
2023-12-30T02:07:02.044Z,6.10
2023-12-30T02:09:31.399Z,5.50
2023-12-30T02:12:00.355Z,6.67
2023-12-30T02:14:29.702Z,8.27
2023-12-30T02:16:58.621Z,7.13
2023-12-30T02:19:27.416Z,10.97
2023-12-30T02:21:56.892Z,4.50
2023-12-30T02:24:26.781Z,3.63
2023-12-30T02:26:55.743Z,6.00
2023-12-30T02:29:23.806Z,5.30
2023-12-30T02:31:51.729Z,5.00
2023-12-30T02:34:20.438Z,3.53
2023-12-30T02:36:50.199Z,6.37
2023-12-30T02:39:20.208Z,4.53
2023-12-30T02:41:49.662Z,3.97
2023-12-30T02:44:20.464Z,5.30
2023-12-30T02:46:49.241Z,5.53
2023-12-30T02:49:19.393Z,6.63
2023-12-30T02:51:47.677Z,5.97
2023-12-30T02:54:15.835Z,4.37
2023-12-30T02:56:43.930Z,6.83
2023-12-30T02:59:13.107Z,2.87
2023-12-30T03:01:40.929Z,2.90
2023-12-30T03:04:09.115Z,5.13
2023-12-30T03:06:36.955Z,3.07
2023-12-30T03:09:04.884Z,2.30
2023-12-30T03:11:32.832Z,6.67
2023-12-30T03:14:01.781Z,6.80
2023-12-30T03:16:31.142Z,4.33
2023-12-30T03:18:59.345Z,2.20
2023-12-30T03:21:27.137Z,1.50
2023-12-30T03:23:55.153Z,3.23
2023-12-30T03:26:23.175Z,4.03
2023-12-30T03:28:51.174Z,4.27
2023-12-30T03:31:23.030Z,3.87
2023-12-30T03:33:52.799Z,2.43
2023-12-30T03:36:20.671Z,3.17
2023-12-30T03:38:49.979Z,2.97
2023-12-30T03:41:19.910Z,1.83
2023-12-30T03:46:33.624Z,6.37
2023-12-30T03:49:03.491Z,1.30
2023-12-30T03:51:31.724Z,1.80
2023-12-30T03:53:59.734Z,2.80
2023-12-30T03:56:27.515Z,2.63
2023-12-30T03:58:57.930Z,2.57
2023-12-30T04:01:25.049Z,4.73
2023-12-30T04:03:53.883Z,8.50
2023-12-30T04:06:22.994Z,4.03
2023-12-30T04:08:50.755Z,8.97
2023-12-30T04:11:18.733Z,5.73
2023-12-30T04:13:46.625Z,1.67
2023-12-30T04:16:14.470Z,4.10
2023-12-30T04:18:42.517Z,4.83
2023-12-30T04:21:10.880Z,5.63
2023-12-30T04:23:40.558Z,3.27
2023-12-30T04:26:08.283Z,3.53
2023-12-30T04:28:36.857Z,1.90
2023-12-30T04:31:04.947Z,3.47
2023-12-30T04:33:32.989Z,1.43
2023-12-30T04:36:01.437Z,1.10
2023-12-30T04:38:29.463Z,1.20
2023-12-30T04:40:58.561Z,1.40
2023-12-30T04:43:26.824Z,0.80
2023-12-30T04:45:54.773Z,1.23
2023-12-30T04:48:22.837Z,1.43
2023-12-30T04:50:51.110Z,1.27
2023-12-30T04:53:19.881Z,2.30
2023-12-30T04:55:47.594Z,3.47
2023-12-30T04:58:17.453Z,2.13
2023-12-30T05:00:45.877Z,1.77
2023-12-30T05:03:13.757Z,2.10
2023-12-30T05:05:41.738Z,2.50
2023-12-30T05:08:09.785Z,1.20
2023-12-30T05:10:37.788Z,2.63
2023-12-30T05:13:06.408Z,1.13
2023-12-30T05:15:36.214Z,2.80
2023-12-30T05:18:04.382Z,3.13
2023-12-30T05:20:32.188Z,1.77
2023-12-30T05:23:01.398Z,1.37
2023-12-30T05:25:29.894Z,8.50
2023-12-30T05:27:57.730Z,1.43
2023-12-30T05:30:25.977Z,3.90
2023-12-30T05:32:55.562Z,1.83
2023-12-30T05:35:23.613Z,2.30
2023-12-30T05:37:52.490Z,3.23
2023-12-30T05:40:20.370Z,0.90
2023-12-30T05:42:48.172Z,1.93
2023-12-30T05:45:16.347Z,1.20
2023-12-30T05:47:44.227Z,3.90
2023-12-30T05:50:14.864Z,1.23
2023-12-30T05:52:43.292Z,2.60
2023-12-30T05:55:11.099Z,1.00
2023-12-30T05:57:39.187Z,2.70
2023-12-30T06:00:08.893Z,1.93
2023-12-30T06:02:42.787Z,1.40
2023-12-30T06:05:34.233Z,1.10
2023-12-30T06:08:02.072Z,1.30
2023-12-30T06:10:29.977Z,2.80
2023-12-30T06:12:58.196Z,2.60
2023-12-30T06:15:25.904Z,2.70
2023-12-30T06:17:53.980Z,4.97
2023-12-30T06:20:22.721Z,2.10
2023-12-30T06:22:52.252Z,2.13
2023-12-30T06:25:20.660Z,6.60
2023-12-30T06:27:48.613Z,3.47
2023-12-30T06:30:16.717Z,5.03
2023-12-30T06:32:44.650Z,7.37
2023-12-30T06:35:12.797Z,1.43
2023-12-30T06:37:40.556Z,3.03
2023-12-30T06:40:11.141Z,12.00
2023-12-30T06:42:39.780Z,3.97
2023-12-30T06:45:08.005Z,1.10
2023-12-30T06:47:37.299Z,3.43
2023-12-30T06:50:06.250Z,1.87
2023-12-30T06:52:34.847Z,1.97
2023-12-30T06:55:10.663Z,3.10
2023-12-30T06:57:48.170Z,4.53
2023-12-30T07:00:17.154Z,2.20
2023-12-30T07:02:45.620Z,3.03
2023-12-30T07:05:13.764Z,1.50
2023-12-30T07:07:41.763Z,2.80
2023-12-30T07:10:10.059Z,2.83
2023-12-30T07:12:38.052Z,1.30
2023-12-30T07:15:07.734Z,3.07
2023-12-30T07:17:35.516Z,3.03
2023-12-30T07:20:04.483Z,3.00
2023-12-30T07:22:32.370Z,5.17
2023-12-30T07:25:01.464Z,2.50
2023-12-30T07:27:29.761Z,3.83
2023-12-30T07:29:58.996Z,4.80
2023-12-30T07:32:28.230Z,5.33
2023-12-30T07:34:56.577Z,2.50
2023-12-30T07:37:25.573Z,6.30
2023-12-30T07:39:54.496Z,3.13
2023-12-30T07:42:24.669Z,4.00
2023-12-30T07:44:54.219Z,5.87
2023-12-30T07:47:22.646Z,6.53
2023-12-30T07:49:52.307Z,4.83
2023-12-30T07:52:20.601Z,5.17
2023-12-30T07:54:48.317Z,5.20
2023-12-30T07:57:16.745Z,11.13
2023-12-30T07:59:44.457Z,7.87
2023-12-30T08:02:12.686Z,4.90
2023-12-30T08:04:43.770Z,6.47
2023-12-30T08:07:13.344Z,6.30
2023-12-30T08:09:41.614Z,11.43
2023-12-30T08:12:10.260Z,5.10
2023-12-30T08:14:39.286Z,4.57
2023-12-30T08:17:07.301Z,4.10
2023-12-30T08:19:35.511Z,5.07
2023-12-30T08:22:03.966Z,2.30
2023-12-30T08:24:33.361Z,2.80
2023-12-30T08:27:01.534Z,2.60
2023-12-30T08:29:29.332Z,3.13
2023-12-30T08:31:57.067Z,3.20
2023-12-30T08:34:29.419Z,3.23
2023-12-30T08:36:57.522Z,3.10
2023-12-30T08:39:25.404Z,5.17
2023-12-30T08:41:55.492Z,7.83
2023-12-30T08:44:23.321Z,4.20
2023-12-30T08:47:14.139Z,5.60
2023-12-30T08:49:42.075Z,5.50
2023-12-30T08:52:10.249Z,3.33
2023-12-30T08:54:40.325Z,5.93
2023-12-30T08:57:09.508Z,4.60
2023-12-30T08:59:37.952Z,2.83
2023-12-30T09:02:06.789Z,5.50
2023-12-30T09:04:34.579Z,4.53
2023-12-30T09:07:02.851Z,7.60
2023-12-30T09:09:30.638Z,6.30
2023-12-30T09:12:00.192Z,6.50
2023-12-30T09:14:29.342Z,6.50
2023-12-30T09:16:58.222Z,4.23
2023-12-30T09:19:26.085Z,12.50
2023-12-30T09:21:54.255Z,6.20
2023-12-30T09:24:22.410Z,8.33
2023-12-30T09:26:50.343Z,5.50
2023-12-30T09:29:19.003Z,6.70
2023-12-30T09:31:48.660Z,3.73
2023-12-30T09:34:26.557Z,5.70
2023-12-30T09:37:02.349Z,9.00
2023-12-30T09:39:30.477Z,5.90
2023-12-30T09:41:58.260Z,6.47
2023-12-30T09:44:26.740Z,8.00
2023-12-30T09:46:56.498Z,9.00
2023-12-30T09:49:24.736Z,8.37
2023-12-30T09:51:52.511Z,5.53
2023-12-30T09:54:20.725Z,12.03
2023-12-30T09:56:50.408Z,11.40
2023-12-30T09:59:18.500Z,7.40
2023-12-30T10:01:46.352Z,9.27
2023-12-30T10:04:16.076Z,3.97
2023-12-30T10:06:45.252Z,7.93
2023-12-30T10:09:13.972Z,13.73
2023-12-30T10:11:44.019Z,7.90
2023-12-30T10:14:12.387Z,4.53
2023-12-30T10:16:40.318Z,8.23
2023-12-30T10:19:10.134Z,6.43
2023-12-30T10:21:39.805Z,9.77
2023-12-30T10:24:08.277Z,9.67
2023-12-30T10:26:38.556Z,5.57
2023-12-30T10:29:07.954Z,6.90
2023-12-30T10:31:35.748Z,8.17
2023-12-30T10:34:05.175Z,5.17
2023-12-30T10:36:33.364Z,5.30
2023-12-30T10:39:03.025Z,8.47
2023-12-30T10:41:31.056Z,5.70
2023-12-30T10:43:59.379Z,6.70
2023-12-30T10:46:27.919Z,6.00
2023-12-30T10:48:59.398Z,9.20
2023-12-30T10:51:29.123Z,10.10
2023-12-30T10:54:03.275Z,10.97
2023-12-30T10:56:33.795Z,5.10
2023-12-30T10:59:02.201Z,6.67
2023-12-30T11:01:32.674Z,7.53
2023-12-30T11:04:00.728Z,4.83
2023-12-30T11:06:31.089Z,8.23
2023-12-30T11:09:02.223Z,8.60
2023-12-30T11:11:30.331Z,6.23
2023-12-30T11:14:00.817Z,10.53
2023-12-30T11:16:35.046Z,6.57
2023-12-30T11:19:05.361Z,7.00
2023-12-30T11:21:38.795Z,7.10
2023-12-30T11:24:07.466Z,9.93
2023-12-30T11:26:36.605Z,6.87
2023-12-30T11:29:06.276Z,9.83
2023-12-30T11:31:34.505Z,6.70
2023-12-30T11:34:02.979Z,7.33
2023-12-30T11:36:31.688Z,5.50
2023-12-30T11:39:00.259Z,5.00
2023-12-30T11:41:30.188Z,7.47
2023-12-30T11:43:59.786Z,7.93
2023-12-30T11:46:29.874Z,7.10
2023-12-30T11:48:58.791Z,6.77
2023-12-30T11:51:27.300Z,10.80
2023-12-30T11:53:55.133Z,8.97
2023-12-30T11:56:23.613Z,7.60
2023-12-30T11:58:52.137Z,6.13
2023-12-30T12:01:20.800Z,6.63
2023-12-30T12:03:50.605Z,5.53
2023-12-30T12:06:18.799Z,4.67
2023-12-30T12:08:47.004Z,6.03
2023-12-30T12:11:15.126Z,8.60
2023-12-30T12:13:43.481Z,8.10
2023-12-30T12:16:11.364Z,6.10
2023-12-30T12:18:39.773Z,9.63
2023-12-30T12:21:15.138Z,9.40
2023-12-30T12:23:43.770Z,16.23
2023-12-30T12:26:11.666Z,7.00
2023-12-30T12:28:39.738Z,6.43
2023-12-30T12:31:07.968Z,5.90
2023-12-30T12:33:37.311Z,20.70
2023-12-30T12:36:07.155Z,14.43
2023-12-30T12:38:36.529Z,10.47
2023-12-30T12:41:04.460Z,9.13
2023-12-30T12:43:32.602Z,7.87
2023-12-30T12:46:00.858Z,6.03
2023-12-30T12:48:32.266Z,9.00
2023-12-30T12:51:00.159Z,7.27
2023-12-30T12:53:28.241Z,10.23
2023-12-30T12:55:57.789Z,6.60
2023-12-30T12:58:25.586Z,11.03
2023-12-30T13:00:53.670Z,15.77
2023-12-30T13:03:21.757Z,8.10
2023-12-30T13:05:49.920Z,9.63
2023-12-30T13:08:18.524Z,9.03
2023-12-30T13:10:49.715Z,10.10
2023-12-30T13:13:19.337Z,6.87
2023-12-30T13:15:47.407Z,5.97
2023-12-30T13:18:18.113Z,6.93
2023-12-30T13:20:47.285Z,7.20
2023-12-30T13:23:15.907Z,8.03
2023-12-30T13:25:44.841Z,9.10
2023-12-30T13:28:13.146Z,8.37
2023-12-30T13:30:44.756Z,6.70
2023-12-30T13:33:17.451Z,8.23
2023-12-30T13:35:46.019Z,10.40
2023-12-30T13:38:15.074Z,13.07
2023-12-30T13:40:43.641Z,9.70
2023-12-30T13:43:11.932Z,7.10
2023-12-30T13:45:44.793Z,10.20
2023-12-30T13:48:44.125Z,5.43
2023-12-30T13:51:12.838Z,8.13
2023-12-30T13:53:40.926Z,8.80
2023-12-30T13:56:15.341Z,13.17
2023-12-30T13:58:46.752Z,11.10
2023-12-30T14:01:17.613Z,15.80
2023-12-30T14:03:47.641Z,12.20
2023-12-30T14:06:20.690Z,9.80
2023-12-30T14:08:50.079Z,17.37
2023-12-30T14:11:33.058Z,13.47
2023-12-30T14:14:04.455Z,5.70
2023-12-30T14:16:33.259Z,7.57
2023-12-30T14:19:02.499Z,10.17
2023-12-30T14:21:30.994Z,8.07
2023-12-30T14:23:59.006Z,9.40
2023-12-30T14:26:27.079Z,7.63
2023-12-30T14:28:54.750Z,8.60
2023-12-30T14:31:23.060Z,7.23
2023-12-30T14:33:51.486Z,9.73
2023-12-30T14:36:20.726Z,11.23
2023-12-30T14:38:48.905Z,9.33
2023-12-30T14:41:16.847Z,8.73
2023-12-30T14:43:51.411Z,12.70
2023-12-30T14:46:20.666Z,6.50
2023-12-30T14:48:49.038Z,13.43
2023-12-30T14:51:17.333Z,8.20
2023-12-30T14:53:46.408Z,8.50
2023-12-30T14:56:15.048Z,8.20
2023-12-30T14:58:43.027Z,9.80
2023-12-30T15:01:10.917Z,8.17
2023-12-30T15:03:38.790Z,9.50
2023-12-30T15:06:07.583Z,12.53
2023-12-30T15:08:35.553Z,11.90
2023-12-30T15:11:05.110Z,16.80
2023-12-30T15:13:33.939Z,11.90
2023-12-30T15:16:01.989Z,13.50
2023-12-30T15:18:32.951Z,8.23
2023-12-30T15:21:00.788Z,8.77
2023-12-30T15:23:28.532Z,15.23
2023-12-30T15:25:56.691Z,10.40
2023-12-30T15:28:26.395Z,8.30
2023-12-30T15:30:54.297Z,9.40
2023-12-30T15:33:23.047Z,13.40
2023-12-30T15:35:52.218Z,16.70
2023-12-30T15:38:20.241Z,11.43
2023-12-30T15:40:48.700Z,7.97
2023-12-30T15:43:16.699Z,9.77
2023-12-30T15:45:45.876Z,11.93
2023-12-30T15:48:15.261Z,15.93
2023-12-30T15:50:43.906Z,10.27
2023-12-30T15:53:11.891Z,11.30
2023-12-30T15:55:40.910Z,24.03
2023-12-30T15:58:09.672Z,11.53
2023-12-30T16:00:37.583Z,11.80
2023-12-30T16:03:08.449Z,18.87
2023-12-30T16:05:38.346Z,15.37
2023-12-30T16:08:06.598Z,15.20
2023-12-30T16:10:34.562Z,16.37
2023-12-30T16:13:03.074Z,14.13
2023-12-30T16:15:35.310Z,12.53
2023-12-30T16:18:03.762Z,14.30
2023-12-30T16:20:32.997Z,20.23
2023-12-30T16:23:05.230Z,14.10
2023-12-30T16:25:34.198Z,13.73
2023-12-30T16:28:02.145Z,11.20
2023-12-30T16:30:30.484Z,17.53
2023-12-30T16:32:59.105Z,19.83
2023-12-30T16:35:27.092Z,23.30
2023-12-30T16:37:56.244Z,17.43
2023-12-30T16:40:24.047Z,14.40
2023-12-30T16:42:51.782Z,15.50
2023-12-30T16:45:20.101Z,29.07
2023-12-30T16:47:47.852Z,14.27
2023-12-30T16:50:19.085Z,16.90
2023-12-30T16:52:47.673Z,15.33
2023-12-30T16:55:17.730Z,11.40
2023-12-30T16:57:46.440Z,14.10
2023-12-30T17:00:17.942Z,21.30
2023-12-30T17:02:45.734Z,18.30
2023-12-30T17:05:14.424Z,11.93
2023-12-30T17:07:42.449Z,19.10
2023-12-30T17:10:10.442Z,23.83
2023-12-30T17:12:39.761Z,22.30
2023-12-30T17:15:09.409Z,18.13
2023-12-30T17:17:37.232Z,26.20
2023-12-30T17:20:06.446Z,19.90
2023-12-30T17:22:35.318Z,24.33
2023-12-30T17:25:03.323Z,17.73
2023-12-30T17:27:31.324Z,19.83
2023-12-30T17:30:00.617Z,22.17
2023-12-30T17:32:30.618Z,22.40
2023-12-30T17:34:59.950Z,23.70
2023-12-30T17:37:28.140Z,26.40
2023-12-30T17:39:56.237Z,21.77
2023-12-30T17:42:23.908Z,15.80
2023-12-30T17:44:52.468Z,20.80
2023-12-30T17:47:21.912Z,19.97
2023-12-30T17:49:51.198Z,15.50
2023-12-30T17:52:19.261Z,21.97
2023-12-30T17:54:47.024Z,19.73
2023-12-30T17:57:14.928Z,26.67
2023-12-30T17:59:43.125Z,18.33
2023-12-30T18:02:11.244Z,25.90
2023-12-30T18:04:41.326Z,22.90
2023-12-30T18:07:09.626Z,23.70
2023-12-30T18:09:37.664Z,21.23
2023-12-30T18:12:06.490Z,20.83
2023-12-30T18:14:34.549Z,34.43
2023-12-30T18:17:02.460Z,21.73
2023-12-30T18:19:30.718Z,24.00
2023-12-30T18:22:02.793Z,24.40
2023-12-30T18:24:31.107Z,26.00
2023-12-30T18:26:58.811Z,19.80
2023-12-30T18:29:27.146Z,21.97
2023-12-30T18:31:54.877Z,34.47
2023-12-30T18:34:23.178Z,21.27
2023-12-30T18:36:53.931Z,24.13
2023-12-30T18:39:23.026Z,22.50
2023-12-30T18:41:51.122Z,22.87
2023-12-30T18:44:18.817Z,25.03
2023-12-30T18:46:46.592Z,38.03
2023-12-30T18:49:14.626Z,20.47
2023-12-30T18:51:42.632Z,22.57
2023-12-30T18:54:10.325Z,18.13
2023-12-30T18:56:39.692Z,20.67
2023-12-30T18:59:07.837Z,21.53
2023-12-30T19:01:36.860Z,15.03
2023-12-30T19:04:04.758Z,19.77
2023-12-30T19:06:33.730Z,28.30
2023-12-30T19:09:02.583Z,22.30
2023-12-30T19:11:30.540Z,19.20
2023-12-30T19:13:59.867Z,20.27
2023-12-30T19:16:27.817Z,24.93
2023-12-30T19:18:56.117Z,21.10
2023-12-30T19:21:24.040Z,21.67
2023-12-30T19:23:51.722Z,22.33
2023-12-30T19:26:19.751Z,22.73
2023-12-30T19:28:47.582Z,26.43
2023-12-30T19:31:18.414Z,26.33
2023-12-30T19:33:46.756Z,20.40
2023-12-30T19:36:15.105Z,34.23
2023-12-30T19:38:43.365Z,19.57
2023-12-30T19:41:11.476Z,16.30
2023-12-30T19:43:39.472Z,20.30
2023-12-30T19:46:08.951Z,19.20
2023-12-30T19:48:38.721Z,19.60
2023-12-30T19:51:07.903Z,30.27
2023-12-30T19:53:35.862Z,37.37
2023-12-30T19:56:03.588Z,36.27
2023-12-30T19:58:32.890Z,22.13
2023-12-30T20:01:00.900Z,23.07
2023-12-30T20:03:29.907Z,30.60
2023-12-30T20:05:59.111Z,18.67
2023-12-30T20:08:27.216Z,22.77
2023-12-30T20:10:55.038Z,27.10
2023-12-30T20:13:23.671Z,27.50
2023-12-30T20:15:51.474Z,26.70
2023-12-30T20:18:19.463Z,22.93
2023-12-30T20:20:47.402Z,42.50
2023-12-30T20:23:15.953Z,25.53
2023-12-30T20:25:43.655Z,25.20
2023-12-30T20:30:59.223Z,16.67
2023-12-30T20:33:27.614Z,40.43
2023-12-30T20:35:55.943Z,29.20
2023-12-30T20:38:25.026Z,22.40
2023-12-30T20:40:53.377Z,29.43
2023-12-30T20:43:21.231Z,43.77
2023-12-30T20:45:49.373Z,28.50
2023-12-30T20:48:17.986Z,29.40
2023-12-30T20:50:45.912Z,33.47
2023-12-30T20:53:13.676Z,26.57
2023-12-30T20:55:43.023Z,36.83
2023-12-30T20:58:10.847Z,31.63
2023-12-30T21:00:39.750Z,32.30
2023-12-30T21:03:08.145Z,25.10
2023-12-30T21:05:35.900Z,17.90
2023-12-30T21:08:03.935Z,18.80
2023-12-30T21:10:31.944Z,19.40
2023-12-30T21:13:01.433Z,18.87
2023-12-30T21:15:30.038Z,30.03
2023-12-30T21:17:58.095Z,32.03
2023-12-30T21:20:25.832Z,24.73
2023-12-30T21:22:55.967Z,20.57
2023-12-30T21:25:27.387Z,16.87
2023-12-30T21:27:55.875Z,21.67
2023-12-30T21:30:25.793Z,21.90
2023-12-30T21:32:55.309Z,25.67
2023-12-30T21:35:23.320Z,24.23
2023-12-30T21:37:51.604Z,20.17
2023-12-30T21:40:20.192Z,27.17
2023-12-30T21:42:48.054Z,18.67
2023-12-30T21:45:16.067Z,23.27
2023-12-30T21:47:45.201Z,32.47
2023-12-30T21:50:14.428Z,21.50
2023-12-30T21:52:45.282Z,17.73
2023-12-30T21:55:13.238Z,20.10
2023-12-30T21:57:41.011Z,20.63
2023-12-30T22:00:12.405Z,40.40
2023-12-30T22:02:40.376Z,19.17
2023-12-30T22:05:10.291Z,23.00
2023-12-30T22:07:38.707Z,19.90
2023-12-30T22:10:07.935Z,20.50
2023-12-30T22:12:35.921Z,18.93
2023-12-30T22:15:03.903Z,18.43
2023-12-30T22:17:31.938Z,22.27
2023-12-30T22:20:00.693Z,24.20
2023-12-30T22:22:30.157Z,23.70
2023-12-30T22:25:02.842Z,15.83
2023-12-30T22:27:33.318Z,22.03
2023-12-30T22:30:02.430Z,25.73
2023-12-30T22:32:32.188Z,24.20
2023-12-30T22:35:04.287Z,19.67
2023-12-30T22:37:33.693Z,24.63
2023-12-30T22:40:01.707Z,21.43
2023-12-30T22:42:29.833Z,23.13
2023-12-30T22:44:58.457Z,23.90
2023-12-30T22:47:26.479Z,23.33
2023-12-30T22:49:54.480Z,21.30
2023-12-30T22:52:22.274Z,23.27
2023-12-30T22:54:51.416Z,28.27
2023-12-30T22:57:19.560Z,23.70
2023-12-30T22:59:47.367Z,25.70
2023-12-30T23:02:15.462Z,30.23
2023-12-30T23:04:43.427Z,17.17
2023-12-30T23:07:10.868Z,25.80
2023-12-30T23:09:39.482Z,21.93
2023-12-30T23:12:09.478Z,22.83
2023-12-30T23:14:37.568Z,19.67
2023-12-30T23:17:05.630Z,15.60
2023-12-30T23:19:33.966Z,21.27
2023-12-30T23:22:01.706Z,21.93
2023-12-30T23:24:29.520Z,22.97
2023-12-30T23:26:57.442Z,16.50
2023-12-30T23:29:27.670Z,20.50
2023-12-30T23:31:55.684Z,19.20
2023-12-30T23:34:24.955Z,32.83
2023-12-30T23:36:56.087Z,16.20
2023-12-30T23:39:23.979Z,14.73
2023-12-30T23:41:51.910Z,15.83
2023-12-30T23:44:19.646Z,20.20
2023-12-30T23:46:48.993Z,28.70
2023-12-30T23:49:17.197Z,16.87
2023-12-30T23:51:45.044Z,15.57
2023-12-30T23:54:13.373Z,13.37
2023-12-30T23:56:44.179Z,11.90
2023-12-30T23:59:13.030Z,14.80
